createdAt,value
2022-12-23T00:01:24.036Z,2.13
2022-12-23T00:03:55.733Z,2.80
2022-12-23T00:06:23.877Z,3.03
2022-12-23T00:08:58.342Z,3.33
2022-12-23T00:11:28.567Z,2.38
2022-12-23T00:14:20.423Z,2.13
2022-12-23T00:16:49.920Z,2.38
2022-12-23T00:19:19.435Z,2.42
2022-12-23T00:21:48.464Z,2.83
2022-12-23T00:24:16.596Z,3.47
2022-12-23T00:26:44.612Z,3.00
2022-12-23T00:29:12.613Z,2.75
2022-12-23T00:31:40.972Z,2.58
2022-12-23T00:34:10.322Z,2.97
2022-12-23T00:36:40.869Z,2.67
2022-12-23T00:39:30.703Z,5.78
2022-12-23T00:42:16.119Z,2.88
2022-12-23T00:44:44.183Z,3.65
2022-12-23T00:47:32.185Z,3.75
2022-12-23T00:49:59.265Z,2.60
2022-12-23T00:52:28.651Z,5.60
2022-12-23T00:54:56.647Z,2.60
2022-12-23T00:57:24.652Z,3.83
2022-12-23T00:59:55.012Z,4.32
2022-12-23T01:02:40.539Z,3.87
2022-12-23T01:05:29.634Z,2.63
2022-12-23T01:07:59.116Z,3.30
2022-12-23T01:10:27.149Z,3.20
2022-12-23T01:12:55.408Z,2.38
2022-12-23T01:15:23.729Z,1.98
2022-12-23T01:17:57.271Z,2.63
2022-12-23T01:20:25.702Z,3.33
2022-12-23T01:22:53.685Z,2.53
2022-12-23T01:25:23.082Z,5.43
2022-12-23T01:27:51.060Z,3.80
2022-12-23T01:30:19.109Z,3.17
2022-12-23T01:32:49.836Z,1.90
2022-12-23T01:35:17.992Z,2.53
2022-12-23T01:37:46.000Z,2.88
2022-12-23T01:40:14.223Z,3.13
2022-12-23T01:42:45.329Z,3.03
2022-12-23T01:45:17.055Z,2.38
2022-12-23T01:47:50.563Z,2.37
2022-12-23T01:50:23.291Z,3.95
2022-12-23T01:52:59.352Z,2.30
2022-12-23T01:55:34.332Z,4.03
2022-12-23T01:58:09.436Z,2.25
2022-12-23T02:01:07.924Z,3.15
2022-12-23T02:03:45.147Z,1.15
2022-12-23T02:06:36.640Z,2.15
2022-12-23T02:09:18.549Z,10.10
2022-12-23T02:12:13.064Z,1.70
2022-12-23T02:15:19.663Z,1.83
2022-12-23T02:17:58.837Z,3.03
2022-12-23T02:20:47.248Z,3.00
2022-12-23T02:23:48.086Z,2.65
2022-12-23T02:26:37.061Z,2.00
2022-12-23T02:29:30.040Z,2.93
2022-12-23T02:32:04.340Z,2.03
2022-12-23T02:34:40.382Z,1.73
2022-12-23T02:37:17.610Z,2.88
2022-12-23T02:39:53.134Z,3.40
2022-12-23T02:42:24.671Z,2.05
2022-12-23T02:45:00.641Z,1.50
2022-12-23T02:47:34.677Z,2.25
2022-12-23T02:50:10.642Z,1.90
2022-12-23T02:52:42.347Z,3.00
2022-12-23T02:55:13.499Z,2.80
2022-12-23T02:57:46.435Z,2.00
2022-12-23T03:00:16.147Z,2.10
2022-12-23T03:02:46.347Z,3.83
2022-12-23T03:05:29.833Z,3.28
2022-12-23T03:08:02.707Z,2.80
2022-12-23T03:10:40.759Z,1.53
2022-12-23T03:13:17.812Z,1.75
2022-12-23T03:15:51.771Z,2.20
2022-12-23T03:18:29.408Z,1.93
2022-12-23T03:21:07.478Z,2.97
2022-12-23T03:23:41.830Z,1.60
2022-12-23T03:26:16.986Z,2.87
2022-12-23T03:28:50.649Z,2.70
2022-12-23T03:31:25.631Z,1.93
2022-12-23T03:33:59.497Z,2.70
2022-12-23T03:36:30.782Z,1.73
2022-12-23T03:38:59.705Z,2.83
2022-12-23T03:41:32.614Z,2.57
2022-12-23T03:44:05.025Z,2.40
2022-12-23T03:46:37.594Z,1.90
2022-12-23T03:49:10.125Z,3.27
2022-12-23T03:51:48.936Z,3.30
2022-12-23T03:54:23.192Z,2.83
2022-12-23T03:56:58.145Z,4.13
2022-12-23T03:59:29.497Z,2.53
2022-12-23T04:02:06.573Z,2.70
2022-12-23T04:04:47.238Z,2.00
2022-12-23T04:07:20.449Z,2.35
2022-12-23T04:09:49.236Z,2.40
2022-12-23T04:12:17.287Z,2.00
2022-12-23T04:14:48.526Z,3.17
2022-12-23T04:17:17.683Z,3.00
2022-12-23T04:19:47.586Z,3.10
2022-12-23T04:22:16.954Z,1.57
2022-12-23T04:24:44.942Z,3.87
2022-12-23T04:27:14.819Z,2.93
2022-12-23T04:29:42.886Z,2.67
2022-12-23T04:32:11.223Z,2.20
2022-12-23T04:34:39.198Z,1.80
2022-12-23T04:37:08.631Z,1.60
2022-12-23T04:39:38.805Z,2.70
2022-12-23T04:42:06.888Z,3.00
2022-12-23T04:44:36.066Z,1.90
2022-12-23T04:47:04.114Z,2.60
2022-12-23T04:49:32.337Z,1.43
2022-12-23T04:52:01.545Z,1.73
2022-12-23T04:54:31.082Z,2.60
2022-12-23T04:56:59.035Z,1.97
2022-12-23T04:59:27.381Z,2.77
2022-12-23T05:01:55.501Z,1.63
2022-12-23T05:04:23.567Z,2.30
2022-12-23T05:06:51.578Z,1.43
2022-12-23T05:09:19.896Z,1.90
2022-12-23T05:11:49.195Z,3.30
2022-12-23T05:14:17.250Z,1.10
2022-12-23T05:16:45.280Z,1.20
2022-12-23T05:19:13.391Z,0.80
2022-12-23T05:21:41.360Z,1.70
2022-12-23T05:24:09.738Z,2.57
2022-12-23T05:26:37.696Z,0.80
2022-12-23T05:29:07.085Z,0.70
2022-12-23T05:31:35.179Z,1.00
2022-12-23T05:34:06.691Z,0.80
2022-12-23T05:36:35.083Z,0.90
2022-12-23T05:39:03.258Z,0.80
2022-12-23T05:41:31.261Z,1.43
2022-12-23T05:43:59.271Z,1.30
2022-12-23T05:46:28.656Z,1.47
2022-12-23T05:48:56.681Z,1.83
2022-12-23T05:51:24.835Z,1.43
2022-12-23T05:53:52.878Z,0.87
2022-12-23T05:56:20.883Z,1.40
2022-12-23T05:58:49.047Z,1.03
2022-12-23T06:01:17.070Z,1.40
2022-12-23T06:03:46.586Z,1.07
2022-12-23T06:06:15.149Z,0.77
2022-12-23T06:08:43.213Z,1.63
2022-12-23T06:11:11.230Z,1.53
2022-12-23T06:13:39.328Z,0.70
2022-12-23T06:16:07.978Z,1.17
2022-12-23T06:18:36.085Z,0.80
2022-12-23T06:21:06.004Z,2.53
2022-12-23T06:23:34.135Z,0.87
2022-12-23T06:26:02.637Z,2.73
2022-12-23T06:28:30.807Z,2.07
2022-12-23T06:30:59.224Z,1.73
2022-12-23T06:33:28.920Z,1.10
2022-12-23T06:35:56.982Z,1.10
2022-12-23T06:38:26.333Z,1.17
2022-12-23T06:40:54.508Z,1.23
2022-12-23T06:43:22.550Z,1.67
2022-12-23T06:45:50.735Z,3.63
2022-12-23T06:48:18.864Z,3.73
2022-12-23T06:50:46.920Z,2.20
2022-12-23T06:53:15.697Z,3.00
2022-12-23T06:55:45.071Z,2.80
2022-12-23T06:58:13.131Z,3.37
2022-12-23T07:00:41.103Z,1.43
2022-12-23T07:03:09.296Z,2.80
2022-12-23T07:05:37.969Z,2.83
2022-12-23T07:08:06.558Z,3.27
2022-12-23T07:10:35.281Z,4.17
2022-12-23T07:13:04.693Z,2.40
2022-12-23T07:15:32.921Z,6.27
2022-12-23T07:18:00.966Z,2.47
2022-12-23T07:20:29.076Z,4.03
2022-12-23T07:22:57.181Z,1.57
2022-12-23T07:25:26.083Z,2.47
2022-12-23T07:27:55.197Z,4.90
2022-12-23T07:30:25.806Z,2.70
2022-12-23T07:32:54.369Z,3.30
2022-12-23T07:35:22.381Z,4.40
2022-12-23T07:37:53.658Z,3.60
2022-12-23T07:40:21.618Z,4.83
2022-12-23T07:42:50.964Z,3.87
2022-12-23T07:45:18.971Z,3.60
2022-12-23T07:47:48.355Z,4.37
2022-12-23T07:50:17.190Z,5.57
2022-12-23T07:52:45.251Z,3.37
2022-12-23T07:55:13.633Z,3.43
2022-12-23T07:57:41.654Z,4.17
2022-12-23T08:00:12.035Z,3.37
2022-12-23T08:02:43.518Z,4.10
2022-12-23T08:05:13.906Z,5.33
2022-12-23T08:07:42.384Z,3.03
2022-12-23T08:10:11.235Z,4.43
2022-12-23T08:12:42.699Z,5.13
2022-12-23T08:15:11.108Z,4.83
2022-12-23T08:17:39.074Z,10.20
2022-12-23T08:20:08.443Z,10.67
2022-12-23T08:22:38.041Z,5.83
2022-12-23T08:25:06.865Z,5.80
2022-12-23T08:27:35.786Z,7.63
2022-12-23T08:30:04.153Z,5.13
2022-12-23T08:32:32.152Z,7.47
2022-12-23T08:35:00.303Z,6.73
2022-12-23T08:37:28.382Z,6.37
2022-12-23T08:39:57.757Z,4.53
2022-12-23T08:42:25.850Z,10.03
2022-12-23T08:44:54.013Z,12.43
2022-12-23T08:47:21.971Z,6.90
2022-12-23T08:49:49.964Z,10.17
2022-12-23T08:52:17.952Z,12.17
2022-12-23T08:54:45.990Z,17.20
2022-12-23T08:57:15.395Z,12.23
2022-12-23T08:59:43.432Z,11.80
2022-12-23T09:02:12.671Z,5.60
2022-12-23T09:04:40.741Z,10.83
2022-12-23T09:07:08.729Z,4.77
2022-12-23T09:09:38.247Z,5.73
2022-12-23T09:12:06.529Z,6.93
2022-12-23T09:14:35.878Z,5.80
2022-12-23T09:17:03.947Z,8.73
2022-12-23T09:19:32.119Z,5.90
2022-12-23T09:22:00.132Z,6.73
2022-12-23T09:24:28.101Z,7.10
2022-12-23T09:26:56.142Z,5.33
2022-12-23T09:29:24.315Z,9.67
2022-12-23T09:31:53.753Z,8.57
2022-12-23T09:34:21.776Z,9.33
2022-12-23T09:36:55.087Z,7.50
2022-12-23T09:39:24.239Z,7.23
2022-12-23T09:42:05.151Z,9.63
2022-12-23T09:44:50.307Z,9.43
2022-12-23T09:47:23.571Z,7.00
2022-12-23T09:49:54.618Z,7.83
2022-12-23T09:54:55.922Z,9.38
2022-12-23T09:57:30.979Z,8.60
2022-12-23T10:00:07.168Z,9.60
2022-12-23T10:02:48.323Z,10.43
2022-12-23T10:08:03.370Z,11.67
2022-12-23T10:10:38.601Z,7.50
2022-12-23T10:13:17.585Z,8.73
2022-12-23T10:15:49.238Z,9.90
2022-12-23T10:18:24.531Z,13.67
2022-12-23T10:20:57.172Z,7.77
2022-12-23T10:23:31.234Z,10.97
2022-12-23T10:25:59.311Z,10.87
2022-12-23T10:28:30.103Z,13.30
2022-12-23T10:31:30.929Z,12.20
2022-12-23T10:34:03.892Z,8.03
2022-12-23T10:36:41.777Z,8.37
2022-12-23T10:39:18.185Z,9.77
2022-12-23T10:41:53.204Z,7.33
2022-12-23T10:44:46.718Z,9.83
2022-12-23T10:47:25.524Z,8.00
2022-12-23T10:50:10.511Z,11.27
2022-12-23T10:52:42.035Z,8.00
2022-12-23T10:55:22.337Z,10.00
2022-12-23T10:57:51.634Z,9.35
2022-12-23T11:00:23.962Z,10.57
2022-12-23T11:03:08.902Z,6.53
2022-12-23T11:05:38.335Z,7.57
2022-12-23T11:08:07.124Z,8.43
2022-12-23T11:10:35.186Z,9.90
2022-12-23T11:13:03.409Z,10.67
2022-12-23T11:15:34.380Z,8.50
2022-12-23T11:18:07.724Z,5.18
2022-12-23T11:20:38.182Z,5.80
2022-12-23T11:23:08.143Z,6.35
2022-12-23T11:25:41.486Z,7.33
2022-12-23T11:28:16.212Z,8.68
2022-12-23T11:30:56.491Z,7.47
2022-12-23T11:33:27.401Z,6.40
2022-12-23T11:36:06.405Z,8.27
2022-12-23T11:38:36.204Z,7.53
2022-12-23T11:41:06.216Z,6.30
2022-12-23T11:43:34.913Z,5.80
2022-12-23T11:46:18.205Z,7.13
2022-12-23T11:48:54.349Z,5.97
2022-12-23T11:51:27.972Z,6.20
2022-12-23T11:54:01.502Z,5.25
2022-12-23T11:56:37.375Z,5.13
2022-12-23T11:59:09.449Z,4.70
2022-12-23T12:01:39.449Z,5.38
2022-12-23T12:04:10.320Z,5.75
2022-12-23T12:06:52.664Z,4.97
2022-12-23T12:09:25.057Z,5.75
2022-12-23T12:11:58.482Z,6.93
2022-12-23T12:14:35.005Z,6.45
2022-12-23T12:17:10.060Z,6.10
2022-12-23T12:19:44.780Z,10.32
2022-12-23T12:22:19.416Z,8.48
2022-12-23T12:24:54.043Z,7.25
2022-12-23T12:27:34.283Z,9.43
2022-12-23T12:30:08.683Z,7.03
2022-12-23T12:32:47.600Z,7.25
2022-12-23T12:35:21.115Z,7.75
2022-12-23T12:37:56.529Z,7.55
2022-12-23T12:40:32.479Z,6.68
2022-12-23T12:43:05.961Z,8.00
2022-12-23T12:45:40.627Z,8.23
2022-12-23T12:48:25.017Z,7.75
2022-12-23T12:51:01.411Z,6.88
2022-12-23T12:53:33.367Z,7.07
2022-12-23T12:56:09.918Z,6.93
2022-12-23T12:58:38.858Z,7.18
2022-12-23T13:01:23.260Z,10.07
2022-12-23T13:04:15.868Z,5.90
2022-12-23T13:06:54.114Z,7.32
2022-12-23T13:09:33.377Z,7.30
2022-12-23T13:12:08.582Z,5.80
2022-12-23T13:14:56.806Z,15.95
2022-12-23T13:17:27.854Z,7.22
2022-12-23T13:22:33.948Z,7.82
2022-12-23T13:25:11.787Z,7.93
2022-12-23T13:27:47.535Z,7.68
2022-12-23T13:30:17.978Z,8.88
2022-12-23T13:33:06.853Z,11.18
2022-12-23T13:36:09.291Z,13.32
2022-12-23T13:38:51.858Z,8.70
2022-12-23T13:41:31.332Z,12.82
2022-12-23T13:44:01.075Z,11.63
2022-12-23T13:46:41.172Z,6.93
2022-12-23T13:49:21.237Z,10.82
2022-12-23T13:51:56.202Z,10.65
2022-12-23T13:54:37.442Z,10.50
2022-12-23T13:59:43.309Z,6.45
2022-12-23T14:02:44.661Z,12.82
2022-12-23T14:05:34.240Z,9.57
2022-12-23T14:08:04.935Z,9.32
2022-12-23T14:10:35.352Z,9.52
2022-12-23T14:13:07.803Z,10.75
2022-12-23T14:16:09.101Z,9.25
2022-12-23T14:19:03.134Z,9.73
2022-12-23T14:21:41.567Z,10.73
2022-12-23T14:25:01.636Z,9.60
2022-12-23T14:27:42.644Z,11.95
2022-12-23T14:30:16.906Z,7.75
2022-12-23T14:32:49.172Z,9.45
2022-12-23T14:35:27.034Z,10.98
2022-12-23T14:38:26.040Z,12.55
2022-12-23T14:41:01.090Z,12.35
2022-12-23T14:43:34.602Z,11.85
2022-12-23T14:46:06.604Z,6.55
2022-12-23T14:49:37.546Z,10.40
2022-12-23T14:52:44.879Z,5.63
2022-12-23T14:55:46.664Z,8.48
2022-12-23T14:58:38.835Z,8.82
2022-12-23T15:01:12.629Z,7.03
2022-12-23T15:03:47.259Z,17.70
2022-12-23T15:06:28.491Z,10.38
2022-12-23T15:08:57.875Z,10.30
2022-12-23T15:11:30.487Z,15.05
2022-12-23T15:14:01.002Z,17.23
2022-12-23T15:16:37.561Z,10.13
2022-12-23T15:19:18.768Z,14.13
2022-12-23T15:24:23.888Z,8.45
2022-12-23T15:27:24.551Z,6.95
2022-12-23T15:29:48.461Z,10.40
2022-12-23T15:32:17.370Z,8.57
2022-12-23T15:34:45.690Z,6.70
2022-12-23T15:37:16.451Z,4.30
2022-12-23T15:39:55.225Z,8.50
2022-12-23T15:42:32.326Z,6.38
2022-12-23T15:45:00.389Z,10.55
2022-12-23T15:47:31.610Z,9.60
2022-12-23T15:50:00.674Z,12.10
2022-12-23T15:52:30.585Z,9.10
2022-12-23T15:55:03.764Z,10.30
2022-12-23T15:57:49.530Z,8.65
2022-12-23T16:00:23.354Z,3.72
2022-12-23T16:03:02.390Z,7.97
2022-12-23T16:05:33.279Z,6.67
2022-12-23T16:08:12.190Z,6.55
2022-12-23T16:10:41.373Z,9.80
2022-12-23T16:13:18.418Z,9.50
2022-12-23T16:15:46.625Z,11.07
2022-12-23T16:18:20.822Z,7.50
2022-12-23T16:20:53.573Z,10.02
2022-12-23T16:23:23.116Z,10.53
2022-12-23T16:25:53.939Z,8.02
2022-12-23T16:28:28.911Z,13.20
2022-12-23T16:30:59.405Z,9.70
2022-12-23T16:33:37.006Z,12.18
2022-12-23T16:36:23.838Z,12.57
2022-12-23T16:38:53.718Z,9.68
2022-12-23T16:41:21.848Z,8.27
2022-12-23T16:43:52.750Z,12.77
2022-12-23T16:46:23.219Z,7.63
2022-12-23T16:48:55.464Z,8.05
2022-12-23T16:51:26.329Z,8.30
2022-12-23T16:53:56.409Z,12.50
2022-12-23T16:56:28.515Z,9.53
2022-12-23T16:58:57.975Z,13.27
2022-12-23T17:01:28.879Z,11.17
2022-12-23T17:03:57.102Z,7.72
2022-12-23T17:06:26.053Z,18.37
2022-12-23T17:08:54.885Z,12.97
2022-12-23T17:11:25.371Z,15.70
2022-12-23T17:13:58.018Z,12.35
2022-12-23T17:16:31.277Z,16.73
2022-12-23T17:19:00.111Z,19.77
2022-12-23T17:21:32.410Z,10.73
2022-12-23T17:24:05.714Z,13.23
2022-12-23T17:26:33.687Z,12.57
2022-12-23T17:29:03.473Z,19.67
2022-12-23T17:31:34.174Z,12.93
2022-12-23T17:34:02.806Z,17.38
2022-12-23T17:36:31.221Z,14.10
2022-12-23T17:38:59.305Z,18.97
2022-12-23T17:41:30.926Z,15.83
2022-12-23T17:43:59.629Z,17.57
2022-12-23T17:46:28.516Z,12.90
2022-12-23T17:48:59.216Z,14.27
2022-12-23T17:51:28.247Z,21.92
2022-12-23T17:53:58.173Z,13.50
2022-12-23T17:56:28.526Z,11.98
2022-12-23T17:58:56.835Z,16.08
2022-12-23T18:01:27.203Z,20.93
2022-12-23T18:03:57.715Z,15.98
2022-12-23T18:06:27.820Z,18.73
2022-12-23T18:08:56.963Z,18.48
2022-12-23T18:11:30.793Z,16.47
2022-12-23T18:13:59.084Z,20.20
2022-12-23T18:16:27.140Z,15.93
2022-12-23T18:18:55.338Z,18.20
2022-12-23T18:21:27.311Z,20.47
2022-12-23T18:23:57.669Z,14.03
2022-12-23T18:26:26.001Z,19.67
2022-12-23T18:28:54.676Z,14.57
2022-12-23T18:31:27.293Z,19.73
2022-12-23T18:33:55.750Z,16.90
2022-12-23T18:36:27.085Z,20.83
2022-12-23T18:38:57.145Z,19.27
2022-12-23T18:41:26.969Z,18.90
2022-12-23T18:43:55.354Z,19.47
2022-12-23T18:46:23.624Z,13.60
2022-12-23T18:48:52.144Z,15.53
2022-12-23T18:51:22.311Z,19.57
2022-12-23T18:53:52.073Z,17.73
2022-12-23T18:56:21.105Z,16.23
2022-12-23T18:58:49.444Z,31.63
2022-12-23T19:01:19.245Z,43.73
2022-12-23T19:03:47.663Z,24.10
2022-12-23T19:06:16.679Z,22.57
2022-12-23T19:08:45.208Z,20.00
2022-12-23T19:11:16.471Z,18.23
2022-12-23T19:13:46.781Z,24.93
2022-12-23T19:16:16.622Z,16.52
2022-12-23T19:18:45.318Z,19.70
2022-12-23T19:21:13.354Z,19.13
2022-12-23T19:23:42.452Z,23.33
2022-12-23T19:26:10.564Z,29.70
2022-12-23T19:28:41.367Z,19.10
2022-12-23T19:31:09.871Z,20.88
2022-12-23T19:33:38.560Z,15.43
2022-12-23T19:36:11.121Z,20.40
2022-12-23T19:38:39.596Z,22.87
2022-12-23T19:41:08.247Z,27.03
2022-12-23T19:43:37.429Z,22.33
2022-12-23T19:46:09.863Z,34.57
2022-12-23T19:48:38.304Z,24.70
2022-12-23T19:51:08.149Z,47.87
2022-12-23T19:53:36.923Z,17.23
2022-12-23T19:56:09.065Z,19.20
2022-12-23T19:58:40.129Z,18.30
2022-12-23T20:03:39.309Z,18.37
2022-12-23T20:06:09.237Z,27.23
2022-12-23T20:08:37.219Z,26.33
2022-12-23T20:11:07.139Z,22.10
2022-12-23T20:13:35.813Z,17.30
2022-12-23T20:16:04.346Z,19.77
2022-12-23T20:18:33.868Z,21.43
2022-12-23T20:21:02.152Z,18.67
2022-12-23T20:23:33.380Z,22.47
2022-12-23T20:26:01.489Z,17.27
2022-12-23T20:28:29.682Z,25.73
2022-12-23T20:31:02.778Z,18.60
2022-12-23T20:33:30.845Z,22.83
2022-12-23T20:36:00.168Z,24.07
2022-12-23T20:38:28.375Z,22.10
2022-12-23T20:40:56.334Z,22.30
2022-12-23T20:43:24.629Z,28.50
2022-12-23T20:45:53.043Z,22.30
2022-12-23T20:48:21.755Z,20.13
2022-12-23T20:50:49.892Z,23.90
2022-12-23T20:53:19.382Z,24.13
2022-12-23T20:55:47.434Z,27.00
2022-12-23T20:58:33.304Z,22.83
2022-12-23T21:01:09.278Z,25.90
2022-12-23T21:03:37.400Z,19.17
2022-12-23T21:06:06.163Z,20.77
2022-12-23T21:08:35.866Z,21.50
2022-12-23T21:11:04.262Z,20.10
2022-12-23T21:13:32.338Z,17.97
2022-12-23T21:16:04.257Z,18.63
2022-12-23T21:18:32.487Z,19.47
2022-12-23T21:21:01.062Z,24.50
2022-12-23T21:23:29.655Z,17.50
2022-12-23T21:26:11.412Z,22.67
2022-12-23T21:28:39.995Z,13.83
2022-12-23T21:31:08.864Z,25.30
2022-12-23T21:33:38.626Z,19.57
2022-12-23T21:36:08.016Z,23.73
2022-12-23T21:38:38.339Z,15.87
2022-12-23T21:41:09.981Z,27.50
2022-12-23T21:43:38.569Z,22.13
2022-12-23T21:46:08.604Z,26.77
2022-12-23T21:48:37.830Z,19.37
2022-12-23T21:51:07.160Z,14.63
2022-12-23T21:53:35.703Z,20.33
2022-12-23T21:56:05.635Z,26.13
2022-12-23T21:58:36.017Z,27.20
2022-12-23T22:01:08.541Z,21.50
2022-12-23T22:03:36.958Z,15.73
2022-12-23T22:06:10.182Z,25.30
2022-12-23T22:08:39.637Z,18.60
2022-12-23T22:11:09.047Z,18.00
2022-12-23T22:13:39.125Z,19.13
2022-12-23T22:16:11.038Z,18.80
2022-12-23T22:18:39.927Z,15.30
2022-12-23T22:21:10.183Z,18.93
2022-12-23T22:23:38.841Z,21.35
2022-12-23T22:26:08.529Z,20.27
2022-12-23T22:28:39.513Z,22.80
2022-12-23T22:31:14.471Z,17.63
2022-12-23T22:34:08.717Z,14.63
2022-12-23T22:36:36.868Z,16.27
2022-12-23T22:39:07.560Z,15.97
2022-12-23T22:41:36.104Z,26.07
2022-12-23T22:44:05.629Z,19.23
2022-12-23T22:46:33.910Z,19.50
2022-12-23T22:49:02.162Z,22.00
2022-12-23T22:51:31.625Z,19.53
2022-12-23T22:54:02.392Z,21.30
2022-12-23T22:56:30.718Z,20.00
2022-12-23T22:58:58.791Z,18.23
2022-12-23T23:01:30.184Z,22.50
2022-12-23T23:04:01.564Z,31.73
2022-12-23T23:06:31.113Z,21.77
2022-12-23T23:08:59.238Z,29.97
2022-12-23T23:11:29.024Z,16.33
2022-12-23T23:13:57.420Z,27.97
2022-12-23T23:16:26.396Z,27.87
2022-12-23T23:18:55.851Z,21.33
2022-12-23T23:21:24.094Z,17.67
2022-12-23T23:23:52.152Z,28.23
2022-12-23T23:26:20.809Z,32.47
2022-12-23T23:28:49.174Z,18.70
2022-12-23T23:31:41.142Z,15.07
2022-12-23T23:34:06.667Z,19.30
2022-12-23T23:36:34.762Z,17.07
2022-12-23T23:39:02.828Z,21.63
2022-12-23T23:41:30.896Z,26.17
2022-12-23T23:43:58.956Z,25.23
2022-12-23T23:46:26.989Z,26.77
2022-12-23T23:48:55.070Z,28.00
2022-12-23T23:51:24.914Z,29.07
2022-12-23T23:53:52.905Z,21.23
2022-12-23T23:56:25.365Z,30.17
2022-12-23T23:58:54.911Z,23.23
